Sunday, April 22, 2018, 5:41 PM EDT
Back to Local

KPBG, Plattsburgh International Airport

Location: Plattsburgh, NY, United States Lat: 44.65
Local Time: 5:41 PM EDT (21:41 GMT) Lon: -73.467
Time Zone: US/Eastern Elev: 239 ft

Show me the last for .
Show Decoded

2018-04-22 16:53 METAR KPBG 222053Z AUTO 05006KT 10SM CLR 13/M07 A3035 RMK AO2 SLP280 T01331072
                 56014 =
2018-04-22 14:53 METAR KPBG 221853Z AUTO 09009KT 10SM CLR 12/M07 A3038 RMK AO2 SLP289 T01221067 =
2018-04-22 13:53 METAR KPBG 221753Z AUTO 11007KT 10SM CLR 11/M06 A3039 RMK AO2 SLP294 T01111061
                 10111 20061 58007 =
2018-04-22 12:53 METAR KPBG 221653Z AUTO 10008KT 10SM CLR 10/M06 A3041 RMK AO2 SLP299 T01001056 =
2018-04-22 11:53 METAR KPBG 221553Z AUTO 10006KT 10SM CLR 10/M05 A3041 RMK AO2 SLP300 T01001050 =
2018-04-22 10:53 METAR KPBG 221453Z AUTO 06007KT 10SM CLR 09/M07 A3042 RMK AO2 SLP302 T00891072
                 51005 =
2018-04-22 09:53 METAR KPBG 221353Z AUTO 07010KT 10SM CLR 08/M07 A3041 RMK AO2 SLP301 T00781067 =
2018-04-22 08:53 METAR KPBG 221253Z AUTO 05007KT 10SM CLR 08/M07 A3041 RMK AO2 SLP299 T00781072 =
2018-04-22 07:53 METAR KPBG 221153Z AUTO 29004KT 10SM CLR 06/M07 A3040 RMK AO2 SLP296 T00611072
                 10061 20000 51014 =
2018-04-22 06:53 METAR KPBG 221053Z AUTO 00000KT 10SM CLR 01/M07 A3039 RMK AO2 SLP293 T00111067 $
                 =
2018-04-22 05:53 METAR KPBG 220953Z AUTO 28004KT 10SM CLR 02/M08 A3037 RMK AO2 SLP287 T00171083 $
                 =
2018-04-22 04:53 METAR KPBG 220853Z AUTO 30005KT 10SM CLR 03/M09 A3036 RMK AO2 SLP282 T00281089
                 53007 $ =
2018-04-22 03:53 METAR KPBG 220753Z AUTO 29006KT 10SM CLR 03/M09 A3035 RMK AO2 SLP280 T00331089 $
                 =
2018-04-22 02:53 METAR KPBG 220653Z AUTO 27006KT 10SM CLR 03/M09 A3034 RMK AO2 SLP276 T00281089 $
                 =
2018-04-22 01:53 METAR KPBG 220553Z AUTO 29006KT 10SM CLR 03/M08 A3034 RMK AO2 SLP275 T00331083
                 10094 20011 53007 $ =
2018-04-22 00:53 METAR KPBG 220453Z AUTO 28005KT 10SM CLR 04/M08 A3033 RMK AO2 SLP272 T00391083
                 401280022 $ =
2018-04-21 23:53 METAR KPBG 220353Z AUTO 28005KT 10SM CLR 04/M08 A3032 RMK AO2 SLP268 T00441083 $
                 =
2018-04-21 22:53 METAR KPBG 220253Z AUTO 27005KT 10SM CLR 04/M08 A3032 RMK AO2 SLP268 T00441078
                 51008 $ =
2018-04-21 21:53 METAR KPBG 220153Z AUTO 27004KT 10SM CLR 04/M08 A3032 RMK AO2 SLP268 T00441078 $
                 =
2018-04-21 20:53 METAR KPBG 220053Z AUTO 28004KT 10SM CLR 07/M09 A3031 RMK AO2 SLP265 T00671089 $
                 =
2018-04-21 19:53 METAR KPBG 212353Z AUTO 32009KT 10SM CLR 09/M10 A3029 RMK AO2 SLP259 T00941100
                 10128 20094 53013 $ =
2018-04-21 18:53 METAR KPBG 212253Z AUTO 33008KT 10SM CLR 11/M09 A3027 RMK AO2 SLP251 T01111094 $
                 =
2018-04-21 17:53 METAR KPBG 212153Z AUTO 31008G21KT 10SM CLR 12/M09 A3026 RMK AO2 SLP249
                 T01171089 $ =

Support USWX by starting your Amazon purchase here.